Terminal Aerodrome Forecast
Issued by NWS

Current Version | Previous Version | Text Only | Print | Product List | Glossary On
Versions: 1 2 3 4 5 6 7 8 9 10 11 12 13
000
FTUS44 KLZK 211100
TAFPBF
TAF
KPBF 211121Z 2112/2212 19004KT P6SM SCT020
     FM211500 22010G18KT P6SM SCT040
     FM220100 20006KT P6SM FEW050=

USA.gov is the U.S. government's official web portal to all federal, state and local government web resources and services.